Time;durP1;ratioP1;P1;durP2;ratioP2;P2;SDS_P1;SDS_P2;PMS_P1;PMS_P2;Temp;Humidity;BMP_temperature;BMP_pressure;BME280_temperature;BME280_humidity;BME280_pressure;Samples;Min_cycle;Max_cycle;Signal;HPM_P1;HPM_P2
2021/01/26 00:02:50;;;;;;;13.20;6.22;;;;;;;6.67;74.80;98953.17;1799024;80;21863;-53
2021/01/26 00:05:57;;;;;;;13.60;6.53;;;;;;;6.63;75.11;98947.77;1797644;78;21185;-54
2021/01/26 00:09:04;;;;;;;12.63;6.17;;;;;;;6.57;75.57;98936.28;1799029;80;21205;-53
2021/01/26 00:12:12;;;;;;;14.47;7.15;;;;;;;6.49;76.21;98930.92;1799102;80;21563;-52
2021/01/26 00:15:18;;;;;;;12.05;5.95;;;;;;;6.45;76.72;98933.70;1799061;80;21339;-53
2021/01/26 00:18:23;;;;;;;11.57;6.25;;;;;;;6.45;77.04;98930.98;1799076;80;21201;-53
2021/01/26 00:21:29;;;;;;;14.75;6.00;;;;;;;6.47;77.24;98926.18;1799142;80;21192;-53
2021/01/26 00:24:34;;;;;;;14.93;6.25;;;;;;;6.46;77.44;98914.14;1799207;78;21851;-53
2021/01/26 00:27:40;;;;;;;11.83;6.65;;;;;;;6.47;77.70;98920.74;1799180;80;21390;-52
2021/01/26 00:30:46;;;;;;;11.68;6.30;;;;;;;6.48;77.91;98903.42;1799181;80;21229;-53
2021/01/26 00:33:51;;;;;;;16.23;6.90;;;;;;;6.50;78.08;98901.34;1799096;80;21247;-53
2021/01/26 00:37:00;;;;;;;12.45;5.78;;;;;;;6.53;78.31;98898.28;1798850;79;21818;-53
2021/01/26 00:40:07;;;;;;;12.95;5.65;;;;;;;6.54;78.52;98890.44;1771290;81;21284;-52
2021/01/26 00:43:13;;;;;;;10.68;5.87;;;;;;;6.57;78.79;98879.19;1772224;81;21313;-55
2021/01/26 00:46:19;;;;;;;10.48;6.28;;;;;;;6.62;78.92;98887.64;1742027;82;21375;-55
2021/01/26 00:49:25;;;;;;;13.43;5.78;;;;;;;6.68;79.08;98881.95;1754877;81;21410;-53
2021/01/26 00:52:33;;;;;;;10.90;5.67;;;;;;;6.69;79.12;98879.58;1772656;80;21366;-53
2021/01/26 00:55:46;;;;;;;12.10;6.35;;;;;;;6.69;79.35;98864.09;1741663;82;21358;-53
2021/01/26 00:58:51;;;;;;;10.75;6.40;;;;;;;6.73;79.46;98869.49;1755063;81;21805;-53
2021/01/26 01:01:59;;;;;;;11.80;6.60;;;;;;;6.75;79.64;98874.23;1775256;80;21409;-54
2021/01/26 01:05:05;;;;;;;13.15;6.55;;;;;;;6.74;79.84;98868.45;1737175;81;21311;-54
2021/01/26 01:08:13;;;;;;;10.20;5.72;;;;;;;6.74;80.06;98848.05;1804390;79;21189;-54
2021/01/26 01:11:17;;;;;;;11.65;5.97;;;;;;;6.76;80.28;98862.31;1804943;79;21851;-53
2021/01/26 01:14:23;;;;;;;11.70;6.25;;;;;;;6.78;80.46;98852.10;1804942;79;21279;-54
2021/01/26 01:17:29;;;;;;;11.57;6.28;;;;;;;6.80;80.55;98850.02;1805026;79;21326;-54
2021/01/26 01:20:35;;;;;;;12.15;6.20;;;;;;;6.83;80.68;98842.01;1771828;81;21394;-53
2021/01/26 01:23:41;;;;;;;12.05;6.22;;;;;;;6.89;80.73;98834.44;1775562;80;21395;-53
2021/01/26 01:26:47;;;;;;;10.03;5.90;;;;;;;6.93;80.73;98851.55;1737006;81;21237;-52
2021/01/26 01:29:52;;;;;;;11.83;6.30;;;;;;;6.98;80.74;98846.38;1741682;81;21362;-52
2021/01/26 01:33:01;;;;;;;10.10;5.80;;;;;;;7.05;80.68;98843.75;1772427;81;21279;-53
2021/01/26 01:36:07;;;;;;;11.53;6.92;;;;;;;7.09;80.59;98849.97;1775265;80;21406;-54
2021/01/26 01:42:19;;;;;;;11.48;5.90;;;;;;;7.12;80.51;98853.67;1731342;82;21879;-53
2021/01/26 01:45:27;;;;;;;9.35;5.40;;;;;;;7.12;80.58;98850.95;1736259;82;21379;-53
2021/01/26 01:48:38;;;;;;;10.55;5.47;;;;;;;7.14;80.66;98854.83;1740676;82;21407;-55
2021/01/26 01:51:46;;;;;;;7.72;5.37;;;;;;;7.13;80.80;98855.88;1771450;81;21177;-54
2021/01/26 01:54:56;;;;;;;10.70;5.55;;;;;;;7.10;81.02;98855.73;1771483;80;21212;-54
2021/01/26 01:58:16;;;;;;;9.58;5.58;;;;;;;7.09;81.12;98847.25;1740864;82;21359;-54
2021/01/26 02:01:23;;;;;;;9.83;5.50;;;;;;;7.08;81.07;98856.45;1761605;81;21251;-53
2021/01/26 02:04:31;;;;;;;8.30;5.45;;;;;;;7.06;81.04;98872.63;1771584;80;21259;-53
2021/01/26 02:07:41;;;;;;;12.18;5.28;;;;;;;7.06;80.12;98881.64;1741098;82;21579;-53
2021/01/26 02:10:59;;;;;;;8.43;5.00;;;;;;;7.09;79.53;98878.54;1758866;81;21367;-53
2021/01/26 02:14:00;;;;;;;7.40;5.70;;;;;;;7.15;79.04;98881.85;1771317;81;21197;-53
2021/01/26 02:17:31;;;;;;;7.90;5.85;;;;;;;7.19;78.59;98895.42;1740635;82;21445;-53
2021/01/26 02:21:11;;;;;;;9.08;6.55;;;;;;;7.22;77.89;98896.39;1758951;81;22243;-53
2021/01/26 02:24:34;;;;;;;8.80;6.90;;;;;;;7.20;77.40;98894.38;1771359;81;21255;-54
2021/01/26 02:27:48;;;;;;;8.70;5.87;;;;;;;7.20;77.02;98912.56;1767375;80;21898;-54
2021/01/26 02:31:13;;;;;;;11.78;6.90;;;;;;;7.15;76.65;98914.50;1693817;82;21224;-53
2021/01/26 02:35:12;;;;;;;6.80;5.40;;;;;;;7.10;76.41;98922.38;1733050;81;21907;-53
2021/01/26 02:39:00;;;;;;;8.10;4.87;;;;;;;6.98;76.17;98933.43;1771178;79;21274;-54
2021/01/26 02:42:35;;;;;;;6.05;3.70;;;;;;;6.85;76.17;98932.41;1775261;80;21224;-54
2021/01/26 02:46:07;;;;;;;3.47;2.58;;;;;;;6.78;75.92;98943.70;1774806;80;21236;-53
2021/01/26 02:49:23;;;;;;;3.08;2.17;;;;;;;6.76;75.96;98967.51;1799256;79;21308;-53
2021/01/26 02:52:48;;;;;;;2.60;1.72;;;;;;;6.71;75.73;98969.43;1799088;80;21295;-52
2021/01/26 02:56:17;;;;;;;2.60;1.87;;;;;;;6.56;75.47;98984.04;1799043;78;21244;-52
2021/01/26 02:59:53;;;;;;;2.62;2.08;;;;;;;6.51;75.12;99001.41;1799162;80;21220;-52
2021/01/26 03:03:08;;;;;;;2.27;1.87;;;;;;;6.42;74.62;99004.73;1799266;80;21304;-53
2021/01/26 03:06:17;;;;;;;2.40;1.92;;;;;;;6.33;73.73;99015.86;1798977;78;21244;-52
2021/01/26 03:09:50;;;;;;;2.52;1.90;;;;;;;6.20;73.43;99027.84;1798860;80;21220;-53
2021/01/26 03:12:48;;;;;;;;;;;;;;;6.15;73.45;99041.97;1801673;80;21197;-52
2021/01/26 03:16:03;;;;;;;2.55;1.92;;;;;;;6.03;73.26;99042.89;1798815;80;20202;-51
2021/01/26 03:19:23;;;;;;;2.65;1.75;;;;;;;5.91;73.02;99045.66;1798876;80;21934;-52
2021/01/26 03:22:32;;;;;;;2.40;1.72;;;;;;;5.75;72.67;99066.11;1799117;80;21205;-54
2021/01/26 03:25:38;;;;;;;2.95;1.80;;;;;;;5.63;72.88;99072.08;1799215;80;21926;-53
2021/01/26 03:28:45;;;;;;;1.72;1.50;;;;;;;5.59;73.14;99077.04;1799055;80;21279;-52
2021/01/26 03:32:01;;;;;;;1.57;1.37;;;;;;;5.58;73.00;99098.94;1799115;80;21359;-53
2021/01/26 03:35:09;;;;;;;2.58;1.20;;;;;;;5.47;72.44;99108.28;1799196;78;21721;-52
2021/01/26 03:38:23;;;;;;;1.27;1.00;;;;;;;5.35;72.41;99129.17;1799075;80;21868;-53
2021/01/26 03:41:29;;;;;;;1.25;1.10;;;;;;;5.22;72.66;99141.92;1806116;79;21244;-51
2021/01/26 03:44:35;;;;;;;1.35;1.12;;;;;;;5.05;72.76;99138.05;1810080;79;21354;-51
2021/01/26 03:48:20;;;;;;;2.25;1.30;;;;;;;4.88;72.82;99155.35;1810117;79;21342;-51
2021/01/26 03:51:54;;;;;;;2.55;1.20;;;;;;;4.67;72.93;99159.92;1810119;79;21204;-50
2021/01/26 03:55:26;;;;;;;2.98;1.32;;;;;;;4.48;73.17;99162.95;1810047;78;21260;-51
2021/01/26 03:59:11;;;;;;;1.47;1.30;;;;;;;4.35;73.29;99178.34;1810537;79;21231;-50
2021/01/26 04:02:26;;;;;;;2.25;1.35;;;;;;;4.28;73.44;99191.36;1810410;79;21208;-51
2021/01/26 04:05:59;;;;;;;1.65;1.40;;;;;;;4.21;73.52;99193.87;1793145;79;21820;-51
2021/01/26 04:09:19;;;;;;;1.22;1.12;;;;;;;4.16;73.63;99215.19;1810649;79;21753;-51
2021/01/26 04:12:29;;;;;;;2.33;1.62;;;;;;;4.06;73.67;99219.88;1810903;79;21322;-52
2021/01/26 04:15:43;;;;;;;2.58;1.65;;;;;;;4.02;73.85;99236.11;1810585;79;21374;-53
2021/01/26 04:18:49;;;;;;;2.15;1.50;;;;;;;3.99;73.93;99247.27;1810606;79;21377;-53
2021/01/26 04:21:57;;;;;;;2.12;1.80;;;;;;;3.94;74.03;99260.44;1810401;79;21196;-53
2021/01/26 04:25:03;;;;;;;2.30;1.80;;;;;;;3.90;74.16;99260.41;1810888;79;21354;-53
2021/01/26 04:28:15;;;;;;;3.92;2.42;;;;;;;3.91;74.22;99273.44;1810468;79;21709;-52
2021/01/26 04:31:31;;;;;;;;;;;;;;;;;;;;;
2021/01/26 04:34:29;;;;;;;6.03;3.47;;;;;;;3.89;74.37;99286.28;1810645;78;21251;-52
2021/01/26 04:37:34;;;;;;;6.30;3.90;;;;;;;3.90;74.47;99298.30;1810533;79;21373;-53
2021/01/26 04:40:43;;;;;;;5.97;3.85;;;;;;;3.91;74.50;99306.78;1808753;79;21346;-51
2021/01/26 04:44:33;;;;;;;7.67;4.33;;;;;;;3.95;74.58;99322.17;1792068;80;21165;-51
2021/01/26 04:47:46;;;;;;;7.28;4.70;;;;;;;3.95;74.47;99331.16;1792189;80;21311;-52
2021/01/26 04:51:02;;;;;;;12.43;6.78;;;;;;;3.96;74.57;99335.58;1792013;79;21205;-52
2021/01/26 04:54:20;;;;;;;;;;;;;;;3.99;74.61;99347.44;1794746;80;21197;-52
2021/01/26 04:57:54;;;;;;;12.20;6.95;;;;;;;4.01;74.61;99352.17;1791902;80;20213;-54
2021/01/26 05:01:23;;;;;;;13.43;8.20;;;;;;;4.03;74.59;99364.19;1791892;80;21228;-54
2021/01/26 05:04:38;;;;;;;14.80;8.60;;;;;;;4.04;74.62;99381.63;1791979;80;21201;-52
2021/01/26 05:07:51;;;;;;;12.93;7.80;;;;;;;4.11;74.65;99389.47;1792006;80;21206;-53
2021/01/26 05:11:17;;;;;;;14.20;9.25;;;;;;;4.15;74.41;99405.77;1791948;80;21232;-53
2021/01/26 05:14:42;;;;;;;12.95;8.85;;;;;;;4.17;74.37;99406.96;1792098;80;21410;-51
2021/01/26 05:17:59;;;;;;;15.38;9.40;;;;;;;4.22;74.22;99423.06;1792238;80;21411;-52
2021/01/26 05:21:13;;;;;;;15.70;9.83;;;;;;;4.26;73.98;99432.59;1792284;80;21371;-52
2021/01/26 05:24:43;;;;;;;15.68;11.18;;;;;;;4.30;73.81;99438.02;1792111;80;21236;-52
2021/01/26 05:27:52;;;;;;;16.15;10.53;;;;;;;4.34;73.61;99448.86;1792268;80;21362;-53
2021/01/26 05:31:05;;;;;;;15.15;10.58;;;;;;;4.38;73.34;99457.03;1791973;80;21188;-53
2021/01/26 05:34:17;;;;;;;15.00;10.43;;;;;;;4.38;73.08;99456.17;1771588;80;21721;-52
2021/01/26 05:37:22;;;;;;;13.90;9.98;;;;;;;4.39;72.70;99458.72;1755765;80;21346;-53
2021/01/26 05:40:44;;;;;;;14.23;9.68;;;;;;;4.41;72.33;99458.06;1791953;80;21225;-53
2021/01/26 05:43:51;;;;;;;13.40;9.90;;;;;;;4.41;71.92;99477.03;1788557;80;21769;-53
2021/01/26 05:50:11;;;;;;;13.98;9.90;;;;;;;4.35;71.07;99489.86;1780150;80;21193;-54
2021/01/26 05:53:39;;;;;;;15.93;11.00;;;;;;;4.36;70.89;99501.55;1770985;80;21355;-52
2021/01/26 05:56:57;;;;;;;15.38;11.03;;;;;;;4.39;70.75;99515.61;1747068;80;21350;-53
2021/01/26 06:00:25;;;;;;;16.85;11.43;;;;;;;4.43;70.53;99518.86;1780330;80;21245;-53
2021/01/26 06:03:32;;;;;;;15.55;10.58;;;;;;;4.49;70.52;99530.42;1759969;81;21354;-55
2021/01/26 06:06:58;;;;;;;18.32;11.63;;;;;;;4.52;70.02;99534.16;1747379;82;21875;-53
2021/01/26 06:10:06;;;;;;;13.65;9.63;;;;;;;4.47;69.55;99531.93;1743346;81;21382;-53
2021/01/26 06:13:13;;;;;;;17.73;11.75;;;;;;;4.49;69.14;99538.55;1739019;81;21197;-53
2021/01/26 06:16:28;;;;;;;20.02;13.62;;;;;;;4.50;69.11;99542.45;1760104;81;21201;-54
2021/01/26 06:19:36;;;;;;;23.62;15.43;;;;;;;4.51;69.06;99542.81;1789711;79;21200;-53
2021/01/26 06:22:43;;;;;;;21.77;13.62;;;;;;;4.58;69.10;99549.28;1777709;80;21354;-53
2021/01/26 06:25:55;;;;;;;23.70;14.58;;;;;;;4.61;68.89;99550.32;1791448;80;21222;-53
2021/01/26 06:29:17;;;;;;;17.00;11.05;;;;;;;4.66;68.88;99545.81;1753919;80;21370;-54
2021/01/26 06:32:40;;;;;;;16.75;11.00;;;;;;;4.72;68.38;99553.80;1760427;81;21237;-53
2021/01/26 06:36:02;;;;;;;15.88;11.12;;;;;;;4.74;67.80;99549.07;1746825;81;21247;-53
2021/01/26 06:39:30;;;;;;;13.88;10.43;;;;;;;4.76;67.51;99547.06;1746752;81;21691;-53
2021/01/26 06:43:17;;;;;;;16.77;11.38;;;;;;;4.76;67.42;99556.55;1760053;81;21382;-53
2021/01/26 06:46:40;;;;;;;16.73;11.00;;;;;;;4.77;67.37;99569.94;1794987;79;21200;-53
2021/01/26 06:50:06;;;;;;;13.88;9.15;;;;;;;4.78;66.47;99571.63;1809546;79;21338;-53
2021/01/26 06:54:04;;;;;;;14.85;11.25;;;;;;;4.77;65.92;99578.08;1808918;79;21181;-53
2021/01/26 06:57:13;;;;;;;14.40;10.68;;;;;;;4.79;65.85;99590.94;1809280;79;21204;-53
2021/01/26 07:00:35;;;;;;;17.02;11.28;;;;;;;4.81;65.63;99602.98;1809526;79;21401;-52
2021/01/26 07:04:11;;;;;;;16.15;11.50;;;;;;;4.84;65.61;99606.72;1777912;80;21353;-52
2021/01/26 07:07:53;;;;;;;16.20;11.40;;;;;;;4.88;65.59;99631.17;1788496;79;21856;-52
2021/01/26 07:11:32;;;;;;;18.75;12.25;;;;;;;4.96;65.51;99639.38;1760452;79;21397;-51
2021/01/26 07:15:06;;;;;;;18.48;11.95;;;;;;;5.02;65.31;99645.52;1805386;79;21318;-52
2021/01/26 07:18:16;;;;;;;16.93;12.10;;;;;;;5.12;65.02;99662.55;1806572;79;21318;-52
2021/01/26 07:21:46;;;;;;;16.93;10.90;;;;;;;5.14;64.62;99683.06;1798681;79;21339;-52
2021/01/26 07:25:24;;;;;;;15.35;11.18;;;;;;;5.17;64.58;99701.73;1804577;79;21453;-53
2021/01/26 07:28:52;;;;;;;16.07;11.97;;;;;;;5.18;64.65;99710.24;1799151;79;21410;-52
2021/01/26 07:32:07;;;;;;;15.63;10.88;;;;;;;5.17;64.80;99734.29;1799797;79;21421;-54
2021/01/26 07:35:55;;;;;;;14.55;10.60;;;;;;;5.16;65.02;99735.80;1807092;79;21228;-53
2021/01/26 07:39:13;;;;;;;17.57;12.18;;;;;;;5.12;64.93;99743.39;1809002;79;21169;-55
2021/01/26 07:42:30;;;;;;;16.20;11.12;;;;;;;5.08;65.21;99742.02;1808482;79;21192;-54
2021/01/26 07:45:42;;;;;;;13.90;10.32;;;;;;;5.12;65.39;99753.42;1766999;79;21204;-54
2021/01/26 07:49:24;;;;;;;;;;;;;;;;;;;;;
2021/01/26 07:52:17;;;;;;;15.53;9.93;;;;;;;5.15;65.76;99751.75;1735379;82;21165;-53
2021/01/26 07:55:35;;;;;;;14.53;10.05;;;;;;;5.22;65.82;99753.66;1738707;81;21307;-54
2021/01/26 07:58:43;;;;;;;14.53;10.70;;;;;;;5.29;65.69;99768.31;1748734;81;21915;-54
2021/01/26 08:02:05;;;;;;;14.30;10.78;;;;;;;5.37;65.64;99759.38;1759201;81;21343;-55
2021/01/26 08:05:21;;;;;;;17.10;12.28;;;;;;;5.41;65.55;99756.19;1738290;81;21343;-54
2021/01/26 08:08:48;;;;;;;15.60;10.30;;;;;;;5.41;65.42;99779.75;1743850;82;21181;-55
2021/01/26 08:12:03;;;;;;;15.75;10.10;;;;;;;5.38;65.37;99780.06;1738341;82;21366;-55
2021/01/26 08:15:29;;;;;;;14.65;10.18;;;;;;;5.33;65.51;99790.05;1743848;81;21212;-54
2021/01/26 08:18:39;;;;;;;14.07;9.83;;;;;;;5.32;65.71;99801.05;1737380;82;21220;-54
2021/01/26 08:21:53;;;;;;;14.25;9.30;;;;;;;5.31;65.52;99802.91;1737845;82;21201;-54
2021/01/26 08:25:07;;;;;;;17.65;9.90;;;;;;;5.27;65.71;99798.81;1733503;81;21279;-54
2021/01/26 08:28:18;;;;;;;11.73;8.65;;;;;;;5.27;65.82;99821.02;1717191;83;21355;-54
2021/01/26 08:31:40;;;;;;;13.65;9.10;;;;;;;5.26;65.75;99831.53;1734036;82;21247;-55
2021/01/26 08:34:47;;;;;;;12.37;8.20;;;;;;;5.25;65.43;99844.77;1776748;79;21355;-55
2021/01/26 08:38:00;;;;;;;12.75;8.60;;;;;;;5.20;65.32;99839.77;1789081;79;21246;-53
2021/01/26 08:41:09;;;;;;;11.73;8.15;;;;;;;5.19;65.33;99855.72;1805755;78;21215;-53
2021/01/26 08:44:31;;;;;;;11.40;8.30;;;;;;;5.13;65.15;99854.13;1806484;79;21677;-52
2021/01/26 08:47:58;;;;;;;12.82;8.68;;;;;;;5.10;65.19;99861.22;1746786;82;21833;-54
2021/01/26 08:51:08;;;;;;;12.00;8.13;;;;;;;5.13;65.13;99869.04;1799005;79;21357;-52
2021/01/26 08:54:17;;;;;;;12.18;8.30;;;;;;;5.23;64.98;99861.70;1780894;80;21816;-53
2021/01/26 08:57:44;;;;;;;11.15;7.62;;;;;;;5.34;64.68;99851.96;1799753;79;21511;-54
2021/01/26 09:00:54;;;;;;;11.10;7.45;;;;;;;5.46;64.49;99842.56;1777682;80;21362;-54
2021/01/26 09:04:03;;;;;;;10.30;7.37;;;;;;;5.64;64.27;99846.98;1745533;82;21859;-54
2021/01/26 09:07:09;;;;;;;9.85;7.17;;;;;;;5.73;63.65;99858.73;1793975;79;21380;-54
2021/01/26 09:10:16;;;;;;;14.47;8.93;;;;;;;5.73;63.42;99858.23;1791144;79;21354;-55
2021/01/26 09:13:31;;;;;;;12.93;8.43;;;;;;;5.75;63.08;99871.66;1769350;79;21179;-54
2021/01/26 09:16:38;;;;;;;13.75;8.00;;;;;;;5.82;63.13;99882.25;1786483;79;21490;-54
2021/01/26 09:19:51;;;;;;;12.53;8.00;;;;;;;5.89;62.63;99877.41;1785828;79;21329;-53
2021/01/26 09:22:57;;;;;;;12.05;7.33;;;;;;;5.93;62.33;99886.10;1790238;79;21254;-55
2021/01/26 09:26:03;;;;;;;12.47;7.78;;;;;;;5.97;62.22;99884.27;1781036;78;21245;-55
2021/01/26 09:29:08;;;;;;;13.05;7.85;;;;;;;5.99;61.94;99874.06;1774649;79;21392;-53
2021/01/26 09:32:14;;;;;;;10.58;7.17;;;;;;;6.02;61.86;99874.27;1748621;81;21193;-52
2021/01/26 09:35:29;;;;;;;12.93;6.85;;;;;;;6.06;62.06;99885.15;1778908;79;21733;-54
2021/01/26 09:38:56;;;;;;;9.83;5.85;;;;;;;6.13;61.95;99888.09;1777428;80;21176;-53
2021/01/26 09:42:02;;;;;;;10.60;6.85;;;;;;;6.17;61.58;99886.24;1745696;82;21555;-54
2021/01/26 09:45:08;;;;;;;9.40;6.33;;;;;;;6.23;61.57;99893.78;1783160;79;21583;-55
2021/01/26 09:51:32;;;;;;;9.55;6.37;;;;;;;6.40;61.56;99909.66;1758059;79;21237;-55
2021/01/26 09:54:39;;;;;;;8.33;6.05;;;;;;;6.49;60.93;99898.67;1763814;79;21701;-54
2021/01/26 09:57:46;;;;;;;7.78;5.25;;;;;;;6.58;60.63;99905.85;1690308;84;21212;-54
2021/01/26 10:00:53;;;;;;;7.60;5.28;;;;;;;6.58;60.11;99907.21;1742633;81;21590;-56
2021/01/26 10:04:10;;;;;;;8.88;5.60;;;;;;;6.61;60.24;99912.32;1745643;82;21699;-55
2021/01/26 10:07:15;;;;;;;8.30;5.67;;;;;;;6.62;60.29;99911.33;1720060;83;21235;-55
2021/01/26 10:10:29;;;;;;;8.48;6.00;;;;;;;6.62;60.08;99917.27;1718809;82;21239;-54
2021/01/26 10:13:41;;;;;;;8.30;6.00;;;;;;;6.62;60.32;99922.20;1748811;82;21354;-54
2021/01/26 10:16:47;;;;;;;7.33;5.47;;;;;;;6.62;60.24;99920.84;1719218;83;21215;-53
2021/01/26 10:19:53;;;;;;;7.42;5.42;;;;;;;6.58;59.80;99922.16;1770647;81;21164;-54
2021/01/26 10:23:15;;;;;;;6.85;4.92;;;;;;;6.53;60.03;99929.98;1751445;82;21212;-54
2021/01/26 10:26:31;;;;;;;8.20;4.97;;;;;;;6.56;60.21;99930.16;1742968;82;21208;-55
2021/01/26 10:29:45;;;;;;;9.33;6.05;;;;;;;6.59;60.19;99922.53;1748330;82;21745;-54
2021/01/26 10:32:55;;;;;;;9.50;6.15;;;;;;;6.62;59.88;99924.92;1742887;82;21255;-55
2021/01/26 10:36:00;;;;;;;11.30;6.35;;;;;;;6.66;59.99;99928.17;1769559;79;21374;-55
2021/01/26 10:39:07;;;;;;;10.13;6.10;;;;;;;6.72;60.07;99929.75;1750737;82;21413;-54
2021/01/26 10:42:22;;;;;;;9.00;5.83;;;;;;;6.73;59.96;99924.64;1769748;81;21394;-55
2021/01/26 10:45:48;;;;;;;9.48;6.30;;;;;;;6.78;60.16;99924.14;1719664;82;21246;-55
2021/01/26 10:48:54;;;;;;;18.25;12.88;;;;;;;6.74;59.91;99934.49;1747731;79;21235;-51
2021/01/26 10:51:59;;;;;;;18.98;13.28;;;;;;;6.72;60.32;99923.45;1809969;79;21819;-49
2021/01/26 10:55:05;;;;;;;14.23;10.13;;;;;;;6.72;60.72;99916.15;1809896;79;21377;-51
2021/01/26 10:58:10;;;;;;;8.83;6.58;;;;;;;6.68;60.92;99912.53;1777732;79;21365;-50
2021/01/26 11:01:16;;;;;;;8.30;5.45;;;;;;;6.63;61.23;99918.45;1777226;79;21425;-49
2021/01/26 11:04:22;;;;;;;6.85;4.70;;;;;;;6.52;61.32;99917.37;1777184;79;21354;-51
2021/01/26 11:07:28;;;;;;;9.83;5.40;;;;;;;6.48;61.65;99916.02;1777427;80;21393;-51
2021/01/26 11:10:34;;;;;;;11.10;6.58;;;;;;;6.49;61.75;99922.28;1777550;80;21200;-51
2021/01/26 11:13:40;;;;;;;9.10;5.67;;;;;;;6.45;61.77;99918.20;1790404;79;21213;-52
2021/01/26 11:16:45;;;;;;;10.68;6.10;;;;;;;6.43;62.10;99902.54;1802458;79;21685;-51
2021/01/26 11:19:52;;;;;;;9.10;5.83;;;;;;;6.47;62.42;99893.06;1799301;79;21923;-50
2021/01/26 11:22:58;;;;;;;10.38;6.28;;;;;;;6.52;62.69;99896.13;1798855;79;21331;-51
2021/01/26 11:26:03;;;;;;;8.48;5.65;;;;;;;6.56;62.52;99907.91;1792515;78;21196;-51
2021/01/26 11:29:08;;;;;;;10.15;6.72;;;;;;;6.55;62.83;99901.27;1797828;79;21713;-52
2021/01/26 11:32:13;;;;;;;13.08;6.17;;;;;;;6.59;63.04;99896.70;1784809;79;21191;-51
2021/01/26 11:35:21;;;;;;;8.50;5.75;;;;;;;6.66;62.81;99877.87;1785093;79;21754;-50
2021/01/26 11:38:27;;;;;;;8.35;5.92;;;;;;;6.65;62.66;99889.74;1796758;79;21219;-51
2021/01/26 11:41:32;;;;;;;9.43;6.28;;;;;;;6.71;63.02;99887.72;1777194;79;21370;-50
2021/01/26 11:44:37;;;;;;;9.48;5.85;;;;;;;6.76;62.24;99895.75;1807650;79;21354;-51
2021/01/26 11:47:42;;;;;;;10.03;6.50;;;;;;;6.75;61.86;99881.82;1775304;79;21711;-51
2021/01/26 11:50:50;;;;;;;8.30;6.05;;;;;;;6.78;61.83;99892.37;1770018;80;21233;-50
2021/01/26 11:53:56;;;;;;;9.33;6.12;;;;;;;6.81;61.80;99894.76;1773134;79;21275;-52
2021/01/26 11:57:01;;;;;;;8.50;6.53;;;;;;;6.79;61.32;99888.63;1781170;80;21211;-53
2021/01/26 12:00:10;;;;;;;7.35;5.67;;;;;;;6.73;61.11;99890.64;1768058;79;21207;-52
2021/01/26 12:03:16;;;;;;;9.55;6.22;;;;;;;6.70;61.24;99877.38;1778429;79;21168;-51
2021/01/26 12:06:22;;;;;;;9.08;6.28;;;;;;;6.67;61.42;99870.91;1800105;78;21201;-52
2021/01/26 12:09:28;;;;;;;10.25;6.25;;;;;;;6.53;61.60;99875.60;1775145;79;21204;-52
2021/01/26 12:12:35;;;;;;;10.58;7.30;;;;;;;6.51;62.14;99885.78;1803417;79;21176;-52
2021/01/26 12:15:43;;;;;;;13.75;8.40;;;;;;;6.60;62.27;99894.81;1776768;80;22070;-52
2021/01/26 12:18:48;;;;;;;14.55;9.10;;;;;;;6.62;62.54;99896.37;1803763;79;21190;-54
2021/01/26 12:21:54;;;;;;;16.23;8.48;;;;;;;6.59;63.00;99891.27;1746524;82;21342;-51
2021/01/26 12:24:59;;;;;;;16.70;9.78;;;;;;;6.59;63.33;99889.90;1750904;80;21235;-51
2021/01/26 12:28:05;;;;;;;19.15;10.70;;;;;;;6.60;63.38;99892.95;1769217;80;21200;-51
2021/01/26 12:31:10;;;;;;;14.45;10.03;;;;;;;6.57;63.54;99898.72;1738223;81;21239;-52
2021/01/26 12:34:15;;;;;;;19.40;11.25;;;;;;;6.55;63.68;99901.27;1764322;80;21227;-51
2021/01/26 12:37:20;;;;;;;16.27;9.35;;;;;;;6.55;63.86;99903.45;1753515;81;21207;-52
2021/01/26 12:40:26;;;;;;;11.93;8.50;;;;;;;6.59;63.82;99911.66;1763998;80;21350;-53
2021/01/26 12:43:31;;;;;;;12.10;8.43;;;;;;;6.66;63.53;99917.30;1783092;78;21176;-52
2021/01/26 12:46:38;;;;;;;12.07;8.50;;;;;;;6.66;63.40;99915.94;1798524;79;21196;-54
2021/01/26 12:49:43;;;;;;;12.07;7.85;;;;;;;6.66;63.27;99922.21;1743774;80;21259;-52
2021/01/26 12:52:49;;;;;;;10.38;7.42;;;;;;;6.61;63.13;99925.09;1807846;79;21965;-52
2021/01/26 12:55:54;;;;;;;12.13;7.58;;;;;;;6.59;63.03;99919.81;1811091;78;21271;-52
2021/01/26 12:59:00;;;;;;;14.40;8.50;;;;;;;6.58;62.77;99915.90;1809723;77;21729;-52
2021/01/26 13:02:07;;;;;;;10.63;7.85;;;;;;;6.53;62.09;99924.55;1798376;79;22045;-51
2021/01/26 13:05:13;;;;;;;12.63;7.25;;;;;;;6.43;62.24;99926.52;1801693;77;21195;-51
2021/01/26 13:08:18;;;;;;;10.23;6.05;;;;;;;6.39;62.31;99927.00;1778883;80;21473;-52
2021/01/26 13:11:24;;;;;;;8.73;5.92;;;;;;;6.35;62.19;99934.61;1799410;79;21760;-50
2021/01/26 13:14:30;;;;;;;9.75;6.47;;;;;;;6.33;62.14;99939.87;1794067;79;21217;-51
2021/01/26 13:17:36;;;;;;;9.45;5.87;;;;;;;6.27;61.94;99944.07;1796493;79;21303;-51
2021/01/26 13:20:42;;;;;;;9.35;5.87;;;;;;;6.24;61.83;99944.39;1785436;80;21232;-52
2021/01/26 13:23:47;;;;;;;10.15;6.97;;;;;;;6.19;61.90;99945.37;1820753;78;21533;-50
2021/01/26 13:26:52;;;;;;;11.48;6.58;;;;;;;6.09;62.52;99945.96;1821324;78;21258;-51
2021/01/26 13:30:03;;;;;;;11.00;6.35;;;;;;;6.06;63.02;99958.50;1821964;77;21184;-50
2021/01/26 13:33:11;;;;;;;7.37;5.42;;;;;;;6.04;63.32;99965.98;1786654;80;21594;-51
2021/01/26 13:36:15;;;;;;;10.15;4.95;;;;;;;6.02;63.35;99978.34;1786743;79;21208;-51
2021/01/26 13:39:22;;;;;;;9.08;4.83;;;;;;;5.96;63.45;99972.70;1781121;79;21354;-52
2021/01/26 13:42:29;;;;;;;16.57;8.18;;;;;;;5.85;63.92;99964.80;1780855;80;21306;-52
2021/01/26 13:45:36;;;;;;;8.88;5.40;;;;;;;5.82;64.25;99976.81;1780527;79;21287;-51
2021/01/26 13:48:43;;;;;;;10.00;6.35;;;;;;;5.78;64.70;99992.19;1781051;80;21232;-50
2021/01/26 13:51:48;;;;;;;9.90;6.22;;;;;;;5.67;65.55;99992.41;1795901;79;21224;-51
2021/01/26 13:54:55;;;;;;;9.30;5.92;;;;;;;5.67;66.22;99994.64;1792260;79;21204;-50
2021/01/26 13:57:59;;;;;;;11.40;8.35;;;;;;;5.66;66.64;99986.12;1736493;82;21697;-49
2021/01/26 14:01:04;;;;;;;10.05;6.17;;;;;;;5.66;67.02;99994.79;1778850;79;21323;-50
2021/01/26 14:04:10;;;;;;;11.40;5.90;;;;;;;5.67;67.38;99996.48;1774666;80;21212;-49
2021/01/26 14:07:16;;;;;;;8.08;5.35;;;;;;;5.65;67.58;99983.56;1804361;79;21176;-50
2021/01/26 14:10:22;;;;;;;9.15;5.40;;;;;;;5.61;67.90;99988.97;1808180;79;21212;-50
2021/01/26 14:13:28;;;;;;;6.65;4.33;;;;;;;5.57;68.13;99972.62;1799560;79;21331;-50
2021/01/26 14:16:35;;;;;;;5.65;4.33;;;;;;;5.53;68.36;99984.80;1796113;78;21207;-49
2021/01/26 14:19:42;;;;;;;6.17;4.58;;;;;;;5.47;68.63;99977.28;1777304;79;21377;-49
2021/01/26 14:22:47;;;;;;;6.83;4.62;;;;;;;5.41;68.85;99980.58;1774349;79;21759;-50
2021/01/26 14:25:54;;;;;;;15.08;8.43;;;;;;;5.33;68.99;99989.98;1791274;79;21235;-51
2021/01/26 14:29:00;;;;;;;8.65;5.03;;;;;;;5.21;69.38;99988.01;1777284;79;21859;-50
2021/01/26 14:32:09;;;;;;;7.58;5.30;;;;;;;5.19;69.60;99989.15;1777827;80;21334;-48
2021/01/26 14:35:18;;;;;;;7.47;4.83;;;;;;;5.18;69.81;99997.81;1796313;78;21425;-49
2021/01/26 14:38:27;;;;;;;8.13;5.83;;;;;;;5.19;69.90;99991.38;1768789;81;21257;-49
2021/01/26 14:41:34;;;;;;;8.00;5.05;;;;;;;5.23;70.16;100002.78;1807161;79;22151;-49
2021/01/26 14:44:39;;;;;;;10.88;5.78;;;;;;;5.28;70.08;99996.41;1808445;79;21311;-49
2021/01/26 14:47:45;;;;;;;7.72;5.10;;;;;;;5.30;70.12;99997.08;1800382;79;21307;-48
2021/01/26 14:50:50;;;;;;;6.92;4.00;;;;;;;5.28;70.04;100001.83;1807335;79;21274;-49
2021/01/26 14:53:56;;;;;;;9.70;6.58;;;;;;;5.29;70.06;100010.30;1780735;79;21212;-49
2021/01/26 14:57:01;;;;;;;11.48;7.45;;;;;;;5.27;70.03;100010.95;1771142;81;21247;-49
2021/01/26 15:00:08;;;;;;;12.80;8.25;;;;;;;5.27;70.15;100012.31;1780350;79;21189;-50
2021/01/26 15:03:15;;;;;;;10.08;6.90;;;;;;;5.22;70.21;100011.41;1788663;79;21169;-50
2021/01/26 15:06:20;;;;;;;48.70;29.12;;;;;;;5.21;70.35;100011.56;1793706;79;21161;-48
2021/01/26 15:09:26;;;;;;;14.15;8.48;;;;;;;5.20;70.35;100013.41;1799357;79;21716;-49
2021/01/26 15:12:32;;;;;;;12.63;8.58;;;;;;;5.19;70.41;100014.43;1795697;79;21745;-49
2021/01/26 15:15:36;;;;;;;12.68;6.47;;;;;;;5.16;70.46;100007.09;1799308;79;21247;-49
2021/01/26 15:18:41;;;;;;;6.95;4.95;;;;;;;5.18;70.55;100006.45;1778468;79;21181;-49
2021/01/26 15:21:46;;;;;;;8.13;5.70;;;;;;;5.20;70.53;100015.30;1739362;82;21624;-50
2021/01/26 15:24:52;;;;;;;8.00;4.62;;;;;;;5.19;70.47;100020.34;1742983;81;21240;-50